Woodcrest, California
Current Conditions -  °F | °C
As of 9:53 AM on Thursday 30 Oct 2014 (Local Time) from KRAL Reporting Station
Broken Clouds Broken Clouds  
Wind Chill: 67°   Ceiling: 25000
Heat Index: 67°   Visibility: 10mi
Dew Point: 47°   Wind: 3mph
Humidity: 49%   Direction: 30°NNE
Pressure: 30.01"   Gusts: NA
Location:  33.9119°N, 117.4°W
Report Text: KRAL 301653Z 03003KT 10SM BKN250 19/08 A3001 RMK AO2 SLP149 T01940083
Loading
Personal Weather Stations






























Interactive Weather Map
Tropical Storm Tracking
New forecast layout! Learn more

10-Day Weather Forecast

Advertisements
Track Severe Weather on mobile